Terminal Aerodrome Forecast
Issued by NWS

Current Version | Previous Version | Text Only | Print | Product List | Glossary Off
Versions: 1 2 3 4 5 6 7 8 9 10 11 12 13 14 15 16 17 18 19 20 21 22 23 24 25 26 27 28

000
FTUS41 KPBZ 241819 CCA
TAFMGW
TAF COR
KMGW 241819Z 2418/2518 36011KT 2SM -SHRA BR OVC004
     FM242000 11007KT P6SM OVC012
     FM250200 15009KT 4SM -SHRA OVC010 WS020/20035KT
     FM250500 14009KT 3SM -SHRA OVC015 WS020/20035KT
     FM251100 19011G24KT 2SM SHRA OVC008 WS020/20035KT
     FM251400 21016G26KT 3SM -SHRA OVC012 WS020/20035KT
     FM251700 24011G20KT P6SM BKN050=

USA.gov is the U.S. government's official web portal to all federal, state and local government web resources and services.